createdAt,value
2023-01-01T00:01:49.899Z,7.93
2023-01-01T00:04:17.782Z,7.07
2023-01-01T00:06:47.259Z,8.30
2023-01-01T00:09:32.755Z,8.03
2023-01-01T00:12:00.645Z,6.83
2023-01-01T00:14:28.595Z,6.53
2023-01-01T00:16:56.855Z,6.33
2023-01-01T00:19:24.835Z,6.07
2023-01-01T00:21:54.186Z,6.23
2023-01-01T00:24:22.093Z,5.90
2023-01-01T00:26:49.955Z,6.07
2023-01-01T00:29:17.908Z,6.10
2023-01-01T00:31:46.846Z,6.47
2023-01-01T00:34:15.213Z,5.83
2023-01-01T00:36:43.188Z,5.50
2023-01-01T00:39:12.629Z,5.97
2023-01-01T00:41:40.584Z,6.80
2023-01-01T00:44:08.484Z,6.33
2023-01-01T00:46:36.344Z,6.90
2023-01-01T00:49:04.264Z,6.67
2023-01-01T00:51:36.933Z,6.50
2023-01-01T00:54:05.586Z,6.50
2023-01-01T00:56:35.434Z,6.33
2023-01-01T00:59:03.295Z,5.73
2023-01-01T01:01:31.788Z,6.20
2023-01-01T01:04:00.035Z,5.70
2023-01-01T01:06:27.990Z,4.90
2023-01-01T01:08:55.879Z,4.70
2023-01-01T01:11:25.836Z,4.60
2023-01-01T01:13:57.369Z,4.43
2023-01-01T01:16:27.454Z,3.80
2023-01-01T01:18:57.667Z,3.70
2023-01-01T01:21:26.309Z,2.80
2023-01-01T01:23:55.000Z,3.00
2023-01-01T01:26:24.698Z,3.00
2023-01-01T01:28:53.518Z,2.23
2023-01-01T01:31:25.286Z,2.20
2023-01-01T01:33:53.148Z,2.53
2023-01-01T01:36:21.667Z,2.30
2023-01-01T01:38:49.776Z,2.10
2023-01-01T01:41:28.012Z,2.17
2023-01-01T01:44:00.139Z,2.40
2023-01-01T01:46:34.321Z,2.67
2023-01-01T01:49:06.209Z,2.73
2023-01-01T01:51:37.865Z,3.00
2023-01-01T01:54:11.652Z,3.10
2023-01-01T01:56:45.572Z,2.83
2023-01-01T01:59:14.698Z,2.40
2023-01-01T02:01:44.121Z,2.33
2023-01-01T02:04:13.424Z,2.27
2023-01-01T02:06:42.025Z,2.00
2023-01-01T02:09:10.892Z,1.90
2023-01-01T02:11:38.803Z,1.73
2023-01-01T02:14:07.309Z,1.87
2023-01-01T02:16:44.020Z,2.30
2023-01-01T02:19:19.666Z,2.00
2023-01-01T02:21:58.310Z,1.83
2023-01-01T02:24:49.908Z,2.23
2023-01-01T02:27:26.341Z,1.97
2023-01-01T02:30:00.148Z,1.87
2023-01-01T02:32:32.244Z,1.70
2023-01-01T02:35:23.920Z,2.00
2023-01-01T02:37:55.778Z,1.70
2023-01-01T02:40:26.026Z,1.70
2023-01-01T02:42:55.164Z,1.60
2023-01-01T02:45:24.699Z,1.90
2023-01-01T02:47:52.527Z,1.50
2023-01-01T02:50:23.707Z,1.60
2023-01-01T02:53:08.269Z,1.70
2023-01-01T02:55:49.170Z,1.50
2023-01-01T02:58:43.459Z,1.60
2023-01-01T03:01:21.304Z,1.80
2023-01-01T03:04:01.645Z,1.60
2023-01-01T03:06:39.678Z,1.70
2023-01-01T03:09:18.842Z,1.90
2023-01-01T03:11:53.766Z,1.90
2023-01-01T03:14:28.347Z,1.80
2023-01-01T03:17:01.368Z,1.37
2023-01-01T03:19:35.849Z,1.67
2023-01-01T03:22:07.232Z,1.50
2023-01-01T03:24:37.590Z,2.03
2023-01-01T03:27:09.062Z,1.70
2023-01-01T03:29:41.268Z,1.60
2023-01-01T03:32:14.854Z,1.47
2023-01-01T03:34:48.593Z,2.00
2023-01-01T03:37:21.630Z,1.60
2023-01-01T03:39:52.755Z,1.90
2023-01-01T03:42:27.991Z,1.87
2023-01-01T03:45:01.846Z,1.57
2023-01-01T03:47:31.738Z,1.70
2023-01-01T03:50:01.312Z,1.67
2023-01-01T03:52:43.199Z,1.60
2023-01-01T03:55:17.965Z,1.90
2023-01-01T03:57:56.529Z,1.50
2023-01-01T04:00:28.196Z,1.57
2023-01-01T04:03:01.725Z,2.17
2023-01-01T04:05:31.177Z,1.73
2023-01-01T04:08:03.106Z,1.70
2023-01-01T04:10:33.068Z,1.70
2023-01-01T04:13:04.970Z,1.87
2023-01-01T04:15:33.792Z,1.40
2023-01-01T04:18:03.319Z,1.93
2023-01-01T04:20:31.945Z,2.10
2023-01-01T04:23:01.274Z,1.70
2023-01-01T04:25:31.032Z,1.70
2023-01-01T04:27:59.298Z,1.80
2023-01-01T04:30:28.305Z,2.30
2023-01-01T04:32:57.044Z,1.67
2023-01-01T04:35:26.673Z,1.57
2023-01-01T04:37:54.600Z,1.80
2023-01-01T04:40:22.598Z,1.83
2023-01-01T04:42:50.425Z,1.60
2023-01-01T04:45:18.708Z,1.77
2023-01-01T04:47:46.928Z,1.77
2023-01-01T04:50:14.957Z,1.63
2023-01-01T04:52:44.172Z,1.73
2023-01-01T04:55:12.072Z,1.60
2023-01-01T04:57:40.085Z,1.70
2023-01-01T05:00:09.429Z,1.30
2023-01-01T05:02:37.394Z,1.63
2023-01-01T05:05:06.051Z,1.53
2023-01-01T05:07:34.565Z,1.80
2023-01-01T05:10:04.105Z,1.93
2023-01-01T05:12:32.124Z,1.93
2023-01-01T05:15:00.098Z,1.50
2023-01-01T05:17:28.021Z,1.83
2023-01-01T05:19:55.921Z,1.73
2023-01-01T05:22:23.792Z,1.80
2023-01-01T05:24:51.740Z,1.50
2023-01-01T05:27:21.201Z,1.83
2023-01-01T05:29:49.079Z,1.77
2023-01-01T05:34:43.728Z,1.73
2023-01-01T05:37:11.610Z,1.97
2023-01-01T05:39:39.393Z,1.70
2023-01-01T05:42:07.217Z,1.70
2023-01-01T05:44:36.512Z,1.70
2023-01-01T05:47:04.477Z,1.40
2023-01-01T05:49:32.642Z,1.63
2023-01-01T05:52:00.460Z,1.67
2023-01-01T05:54:28.304Z,1.87
2023-01-01T05:56:56.230Z,1.90
2023-01-01T05:59:24.353Z,2.10
2023-01-01T06:01:53.891Z,1.63
2023-01-01T06:04:21.948Z,1.63
2023-01-01T06:06:50.224Z,1.97
2023-01-01T06:09:18.179Z,1.90
2023-01-01T06:11:46.192Z,1.83
2023-01-01T06:14:14.146Z,1.90
2023-01-01T06:16:42.748Z,2.10
2023-01-01T06:19:12.347Z,1.63
2023-01-01T06:21:40.361Z,1.50
2023-01-01T06:24:08.595Z,1.67
2023-01-01T06:26:36.405Z,1.73
2023-01-01T06:29:04.395Z,1.67
2023-01-01T06:31:40.162Z,1.77
2023-01-01T06:34:08.705Z,1.73
2023-01-01T06:36:38.069Z,1.43
2023-01-01T06:39:06.413Z,1.70
2023-01-01T06:41:34.364Z,1.90
2023-01-01T06:44:03.037Z,1.90
2023-01-01T06:46:33.028Z,1.60
2023-01-01T06:49:03.164Z,1.60
2023-01-01T06:51:32.782Z,2.00
2023-01-01T06:54:03.747Z,2.03
2023-01-01T06:56:32.439Z,1.73
2023-01-01T06:59:00.507Z,1.67
2023-01-01T07:01:30.197Z,1.90
2023-01-01T07:03:59.273Z,1.70
2023-01-01T07:06:28.372Z,1.63
2023-01-01T07:08:56.548Z,2.33
2023-01-01T07:11:26.379Z,2.10
2023-01-01T07:13:54.486Z,2.00
2023-01-01T07:16:22.490Z,1.83
2023-01-01T07:18:50.756Z,1.87
2023-01-01T07:21:30.968Z,1.97
2023-01-01T07:23:59.976Z,1.60
2023-01-01T07:26:30.726Z,1.53
2023-01-01T07:29:06.309Z,1.70
2023-01-01T07:31:35.843Z,1.60
2023-01-01T07:34:03.800Z,1.97
2023-01-01T07:36:31.847Z,2.03
2023-01-01T07:38:59.901Z,1.90
2023-01-01T07:41:29.289Z,1.90
2023-01-01T07:43:57.470Z,1.77
2023-01-01T07:46:25.535Z,1.97
2023-01-01T07:48:53.632Z,2.07
2023-01-01T07:51:21.756Z,2.00
2023-01-01T07:53:49.896Z,1.70
2023-01-01T07:56:17.948Z,2.47
2023-01-01T07:58:47.310Z,2.10
2023-01-01T08:01:15.833Z,2.43
2023-01-01T08:03:44.099Z,1.90
2023-01-01T08:06:14.135Z,2.27
2023-01-01T08:08:42.480Z,2.17
2023-01-01T08:11:10.440Z,1.90
2023-01-01T08:13:38.278Z,1.90
2023-01-01T08:16:08.902Z,2.07
2023-01-01T08:18:37.176Z,2.60
2023-01-01T08:21:05.843Z,2.30
2023-01-01T08:23:34.405Z,2.20
2023-01-01T08:26:03.696Z,2.30
2023-01-01T08:28:32.209Z,2.20
2023-01-01T08:31:00.411Z,2.00
2023-01-01T08:33:31.790Z,1.93
2023-01-01T08:36:00.133Z,1.80
2023-01-01T08:38:28.294Z,2.10
2023-01-01T08:40:56.275Z,1.83
2023-01-01T08:43:25.650Z,2.23
2023-01-01T08:45:53.534Z,2.40
2023-01-01T08:48:27.071Z,2.17
2023-01-01T08:51:01.767Z,2.60
2023-01-01T08:53:30.697Z,2.00
2023-01-01T08:55:59.056Z,1.97
2023-01-01T08:58:27.959Z,2.50
2023-01-01T09:00:55.902Z,1.93
2023-01-01T09:03:24.344Z,2.30
2023-01-01T09:05:52.917Z,1.97
2023-01-01T09:08:23.565Z,1.80
2023-01-01T09:10:54.938Z,2.07
2023-01-01T09:13:23.497Z,2.03
2023-01-01T09:15:51.489Z,2.20
2023-01-01T09:18:19.888Z,2.27
2023-01-01T09:20:47.711Z,2.47
2023-01-01T09:23:15.664Z,2.20
2023-01-01T09:25:45.196Z,2.23
2023-01-01T09:28:16.437Z,2.00
2023-01-01T09:30:46.341Z,2.23
2023-01-01T09:33:14.302Z,2.13
2023-01-01T09:35:44.535Z,1.93
2023-01-01T09:38:12.488Z,1.90
2023-01-01T09:40:55.854Z,2.40
2023-01-01T09:43:37.108Z,2.10
2023-01-01T09:46:07.618Z,2.37
2023-01-01T09:48:50.158Z,2.20
2023-01-01T09:51:20.975Z,1.80
2023-01-01T09:53:55.903Z,1.90
2023-01-01T09:56:27.712Z,2.50
2023-01-01T09:58:58.875Z,2.10
2023-01-01T10:01:38.722Z,2.03
2023-01-01T10:04:28.352Z,1.90
2023-01-01T10:07:04.945Z,2.60
2023-01-01T10:09:41.856Z,2.20
2023-01-01T10:12:21.067Z,2.27
2023-01-01T10:14:59.612Z,2.10
2023-01-01T10:17:38.786Z,2.33
2023-01-01T10:20:13.207Z,2.10
2023-01-01T10:22:45.767Z,2.10
2023-01-01T10:25:19.774Z,2.00
2023-01-01T10:27:59.154Z,2.00
2023-01-01T10:30:29.743Z,1.93
2023-01-01T10:32:59.344Z,2.10
2023-01-01T10:35:39.568Z,2.50
2023-01-01T10:38:13.882Z,2.17
2023-01-01T10:40:41.875Z,2.20
2023-01-01T10:43:13.104Z,2.03
2023-01-01T10:45:44.469Z,2.20
2023-01-01T10:48:18.401Z,2.07
2023-01-01T10:50:50.322Z,2.30
2023-01-01T10:53:30.731Z,2.40
2023-01-01T10:56:05.370Z,2.10
2023-01-01T10:58:44.497Z,2.00
2023-01-01T11:01:14.246Z,2.07
2023-01-01T11:03:58.431Z,1.80
2023-01-01T11:06:28.105Z,2.00
2023-01-01T11:08:57.908Z,2.03
2023-01-01T11:11:31.543Z,1.90
2023-01-01T11:14:04.577Z,2.17
2023-01-01T11:16:33.630Z,1.87
2023-01-01T11:19:06.536Z,1.80
2023-01-01T11:21:35.670Z,2.40
2023-01-01T11:24:20.770Z,2.40
2023-01-01T11:26:54.534Z,1.80
2023-01-01T11:29:30.077Z,1.90
2023-01-01T11:32:00.864Z,2.47
2023-01-01T11:34:33.505Z,2.20
2023-01-01T11:37:20.350Z,1.90
2023-01-01T11:39:51.007Z,2.17
2023-01-01T11:42:21.249Z,2.10
2023-01-01T11:44:53.856Z,2.30
2023-01-01T11:47:26.110Z,2.10
2023-01-01T11:50:01.842Z,2.40
2023-01-01T11:52:38.340Z,2.20
2023-01-01T11:55:16.981Z,2.10
2023-01-01T11:57:52.015Z,2.23
2023-01-01T12:00:21.645Z,2.47
2023-01-01T12:02:55.848Z,2.00
2023-01-01T12:05:26.277Z,2.23
2023-01-01T12:07:56.041Z,2.23
2023-01-01T12:10:28.084Z,2.47
2023-01-01T12:13:01.839Z,2.40
2023-01-01T12:15:37.953Z,2.27
2023-01-01T12:18:12.429Z,2.30
2023-01-01T12:20:45.504Z,2.43
2023-01-01T12:23:18.175Z,2.30
2023-01-01T12:25:51.666Z,2.00
2023-01-01T12:28:34.553Z,2.13
2023-01-01T12:31:14.037Z,2.47
2023-01-01T12:34:05.986Z,2.57
2023-01-01T12:36:45.345Z,2.07
2023-01-01T12:39:55.286Z,2.60
2023-01-01T12:42:30.847Z,2.23
2023-01-01T12:45:18.761Z,1.87
2023-01-01T12:47:58.714Z,2.27
2023-01-01T12:50:39.959Z,2.40
2023-01-01T12:53:19.973Z,2.23
2023-01-01T12:56:05.867Z,2.50
2023-01-01T12:58:37.217Z,2.10
2023-01-01T13:01:10.156Z,2.40
2023-01-01T13:03:49.076Z,2.00
2023-01-01T13:06:24.896Z,2.43
2023-01-01T13:09:01.018Z,2.00
2023-01-01T13:11:29.733Z,2.53
2023-01-01T13:13:57.867Z,2.10
2023-01-01T13:16:36.480Z,1.90
2023-01-01T13:19:06.863Z,2.60
2023-01-01T13:21:38.399Z,2.73
2023-01-01T13:24:21.889Z,3.17
2023-01-01T13:26:50.699Z,2.77
2023-01-01T13:29:34.550Z,3.30
2023-01-01T13:32:08.110Z,3.27
2023-01-01T13:34:54.145Z,3.50
2023-01-01T13:37:43.067Z,3.57
2023-01-01T13:40:51.238Z,2.87
2023-01-01T13:43:36.933Z,2.47
2023-01-01T13:46:14.836Z,2.20
2023-01-01T13:49:06.824Z,1.93
2023-01-01T13:52:06.588Z,2.17
2023-01-01T13:55:05.517Z,2.47
2023-01-01T13:58:12.739Z,2.23
2023-01-01T14:00:56.249Z,1.83
2023-01-01T14:03:27.684Z,2.30
2023-01-01T14:05:59.346Z,1.80
2023-01-01T14:08:34.070Z,2.03
2023-01-01T14:11:03.594Z,1.90
2023-01-01T14:13:40.310Z,2.13
2023-01-01T14:16:13.742Z,2.50
2023-01-01T14:18:45.849Z,2.37
2023-01-01T14:21:16.172Z,2.17
2023-01-01T14:23:49.932Z,1.73
2023-01-01T14:26:21.047Z,2.40
2023-01-01T14:28:49.306Z,2.07
2023-01-01T14:31:20.030Z,2.30
2023-01-01T14:33:48.566Z,2.27
2023-01-01T14:36:19.627Z,2.10
2023-01-01T14:38:51.491Z,2.23
2023-01-01T14:41:25.304Z,1.93
2023-01-01T14:43:56.391Z,1.90
2023-01-01T14:46:26.779Z,1.83
2023-01-01T14:48:57.969Z,2.00
2023-01-01T14:51:29.643Z,2.20
2023-01-01T14:54:00.656Z,1.90
2023-01-01T14:56:30.781Z,2.93
2023-01-01T14:59:07.680Z,2.40
2023-01-01T15:01:35.735Z,2.43
2023-01-01T15:04:06.737Z,2.20
2023-01-01T15:06:34.682Z,2.33
2023-01-01T15:09:04.191Z,2.90
2023-01-01T15:11:32.266Z,3.00
2023-01-01T15:14:02.534Z,2.50
2023-01-01T15:16:38.071Z,2.23
2023-01-01T15:19:18.310Z,2.10
2023-01-01T15:21:47.364Z,2.93
2023-01-01T15:24:21.987Z,5.17
2023-01-01T15:26:55.335Z,2.80
2023-01-01T15:29:29.263Z,2.87
2023-01-01T15:32:00.756Z,3.37
2023-01-01T15:34:32.606Z,2.80
2023-01-01T15:37:11.585Z,2.10
2023-01-01T15:39:59.922Z,2.20
2023-01-01T15:42:36.284Z,2.37
2023-01-01T15:45:20.892Z,1.83
2023-01-01T15:47:49.823Z,1.97
2023-01-01T15:50:23.417Z,2.10
2023-01-01T15:52:55.929Z,2.30
2023-01-01T15:55:27.824Z,2.40
2023-01-01T15:57:57.444Z,2.10
2023-01-01T16:00:29.337Z,2.40
2023-01-01T16:03:01.601Z,2.47
2023-01-01T16:05:30.200Z,2.30
2023-01-01T16:07:59.876Z,2.30
2023-01-01T16:10:29.230Z,2.20
2023-01-01T16:12:57.351Z,2.47
2023-01-01T16:15:25.797Z,2.17
2023-01-01T16:17:54.317Z,2.20
2023-01-01T16:20:22.748Z,2.43
2023-01-01T16:22:50.750Z,2.50
2023-01-01T16:25:20.641Z,2.30
2023-01-01T16:27:49.973Z,2.23
2023-01-01T16:30:18.037Z,2.33
2023-01-01T16:32:46.355Z,2.40
2023-01-01T16:35:14.610Z,2.40
2023-01-01T16:37:43.898Z,2.70
2023-01-01T16:40:12.222Z,2.20
2023-01-01T16:42:40.242Z,2.27
2023-01-01T16:45:18.769Z,2.00
2023-01-01T16:47:47.148Z,1.97
2023-01-01T16:50:15.209Z,1.77
2023-01-01T16:52:45.095Z,1.60
2023-01-01T16:55:13.769Z,2.03
2023-01-01T16:57:41.865Z,1.70
2023-01-01T17:00:12.895Z,2.00
2023-01-01T17:02:41.306Z,2.80
2023-01-01T17:05:10.615Z,4.50
2023-01-01T17:07:38.581Z,9.30
2023-01-01T17:10:07.396Z,16.73
2023-01-01T17:12:35.279Z,18.83
2023-01-01T17:15:03.141Z,11.80
2023-01-01T17:17:32.397Z,8.50
2023-01-01T17:20:00.424Z,4.57
2023-01-01T17:22:34.023Z,4.00
2023-01-01T17:25:02.471Z,3.13
2023-01-01T17:27:30.318Z,2.90
2023-01-01T17:29:58.163Z,3.10
2023-01-01T17:32:26.161Z,3.20
2023-01-01T17:34:55.996Z,3.27
2023-01-01T17:37:24.008Z,3.57
2023-01-01T17:39:51.790Z,3.73
2023-01-01T17:42:19.582Z,3.07
2023-01-01T17:44:47.491Z,3.17
2023-01-01T17:47:15.335Z,3.10
2023-01-01T17:49:43.696Z,3.10
2023-01-01T17:52:13.428Z,2.80
2023-01-01T17:54:41.232Z,3.33
2023-01-01T17:57:09.131Z,3.00
2023-01-01T17:59:37.075Z,3.93
2023-01-01T18:02:06.067Z,2.90
2023-01-01T18:04:34.218Z,3.17
2023-01-01T18:07:06.355Z,2.80
2023-01-01T18:09:38.219Z,3.00
2023-01-01T18:12:07.129Z,2.60
2023-01-01T18:14:35.118Z,3.03
2023-01-01T18:17:02.908Z,2.93
2023-01-01T18:19:32.353Z,3.20
2023-01-01T18:22:00.179Z,3.20
2023-01-01T18:24:28.271Z,3.07
2023-01-01T18:26:57.771Z,2.60
2023-01-01T18:29:25.761Z,2.63
2023-01-01T18:31:53.814Z,3.17
2023-01-01T18:34:22.099Z,2.57
2023-01-01T18:36:50.643Z,2.70
2023-01-01T18:39:23.259Z,3.13
2023-01-01T18:42:15.155Z,2.87
2023-01-01T18:44:43.489Z,2.90
2023-01-01T18:47:15.576Z,2.90
2023-01-01T18:49:48.831Z,2.90
2023-01-01T18:52:22.582Z,2.97
2023-01-01T18:54:57.796Z,3.00
2023-01-01T18:57:29.728Z,3.33
2023-01-01T19:00:00.451Z,3.60
2023-01-01T19:02:35.363Z,3.20
2023-01-01T19:05:16.551Z,3.20
2023-01-01T19:07:46.706Z,3.37
2023-01-01T19:10:15.229Z,3.37
2023-01-01T19:12:44.941Z,3.60
2023-01-01T19:15:19.296Z,3.60
2023-01-01T19:17:47.722Z,3.20
2023-01-01T19:20:19.057Z,3.70
2023-01-01T19:22:47.875Z,3.83
2023-01-01T19:25:37.775Z,4.00
2023-01-01T19:28:31.354Z,3.90
2023-01-01T19:30:59.746Z,3.90
2023-01-01T19:33:28.931Z,4.17
2023-01-01T19:35:57.067Z,4.37
2023-01-01T19:38:25.048Z,4.17
2023-01-01T19:40:55.848Z,4.33
2023-01-01T19:43:27.638Z,4.27
2023-01-01T19:45:55.536Z,4.30
2023-01-01T19:48:23.493Z,4.70
2023-01-01T19:50:52.235Z,4.90
2023-01-01T19:53:20.241Z,4.87
2023-01-01T19:55:48.218Z,4.87
2023-01-01T19:58:16.217Z,4.90
2023-01-01T20:00:45.704Z,5.50
2023-01-01T20:06:02.021Z,4.93
2023-01-01T20:08:31.071Z,4.93
2023-01-01T20:10:59.121Z,5.17
2023-01-01T20:13:27.366Z,4.63
2023-01-01T20:15:58.214Z,4.93
2023-01-01T20:18:26.320Z,5.30
2023-01-01T20:21:12.196Z,4.90
2023-01-01T20:23:41.599Z,5.07
2023-01-01T20:26:09.796Z,4.73
2023-01-01T20:28:55.125Z,5.00
2023-01-01T20:31:24.382Z,4.73
2023-01-01T20:33:52.353Z,4.13
2023-01-01T20:36:37.515Z,4.33
2023-01-01T20:39:05.405Z,4.30
2023-01-01T20:41:33.408Z,4.47
2023-01-01T20:44:01.680Z,4.07
2023-01-01T20:46:31.083Z,4.27
2023-01-01T20:48:59.492Z,3.90
2023-01-01T20:51:28.098Z,3.90
2023-01-01T20:53:56.159Z,4.00
2023-01-01T20:56:24.048Z,4.50
2023-01-01T20:58:58.960Z,4.20
2023-01-01T21:01:28.271Z,4.60
2023-01-01T21:03:57.945Z,4.33
2023-01-01T21:06:25.921Z,4.83
2023-01-01T21:08:54.094Z,4.47
2023-01-01T21:11:22.335Z,5.23
2023-01-01T21:13:50.789Z,4.73
2023-01-01T21:16:21.033Z,4.23
2023-01-01T21:18:49.693Z,4.07
2023-01-01T21:21:22.367Z,4.43
2023-01-01T21:23:52.348Z,4.30
2023-01-01T21:26:24.950Z,4.57
2023-01-01T21:28:53.080Z,4.10
2023-01-01T21:31:22.778Z,4.30
2023-01-01T21:33:50.687Z,4.20
2023-01-01T21:36:23.886Z,4.20
2023-01-01T21:38:53.007Z,4.23
2023-01-01T21:41:25.120Z,4.33
2023-01-01T21:43:55.631Z,4.20
2023-01-01T21:46:34.447Z,4.40
2023-01-01T21:49:05.114Z,4.30
2023-01-01T21:51:40.224Z,4.43
2023-01-01T21:54:19.467Z,4.63
2023-01-01T21:56:57.362Z,4.37
2023-01-01T21:59:44.525Z,4.23
2023-01-01T22:02:35.021Z,4.17
2023-01-01T22:05:30.169Z,4.57
2023-01-01T22:08:01.057Z,4.23
2023-01-01T22:10:35.510Z,4.83
2023-01-01T22:13:03.879Z,4.37
2023-01-01T22:15:39.484Z,4.77
2023-01-01T22:18:27.090Z,4.57
2023-01-01T22:20:56.236Z,4.83
2023-01-01T22:23:34.809Z,4.87
2023-01-01T22:26:05.911Z,4.30
2023-01-01T22:28:41.781Z,4.33
2023-01-01T22:31:14.211Z,5.10
2023-01-01T22:33:46.095Z,4.07
2023-01-01T22:36:17.404Z,4.37
2023-01-01T22:38:46.924Z,4.53
2023-01-01T22:41:16.038Z,4.37
2023-01-01T22:43:46.873Z,4.00
2023-01-01T22:46:23.868Z,4.53
2023-01-01T22:48:57.714Z,3.93
2023-01-01T22:51:29.058Z,5.00
2023-01-01T22:53:58.458Z,4.13
2023-01-01T22:56:26.323Z,3.40
2023-01-01T22:58:57.338Z,4.30
2023-01-01T23:01:25.653Z,4.53
2023-01-01T23:03:53.950Z,4.20
2023-01-01T23:06:23.017Z,4.10
2023-01-01T23:08:52.065Z,4.23
2023-01-01T23:11:22.035Z,3.77
2023-01-01T23:14:09.206Z,3.80
2023-01-01T23:16:37.849Z,3.87
2023-01-01T23:19:05.855Z,4.13
2023-01-01T23:21:34.927Z,4.43
2023-01-01T23:24:05.614Z,3.53
2023-01-01T23:26:35.200Z,3.80
2023-01-01T23:29:04.033Z,3.80
2023-01-01T23:31:33.492Z,4.20
2023-01-01T23:34:02.097Z,4.07
2023-01-01T23:36:30.483Z,4.40
2023-01-01T23:38:58.423Z,4.27
2023-01-01T23:41:26.560Z,3.83
2023-01-01T23:43:55.847Z,4.20
2023-01-01T23:46:23.841Z,3.37
2023-01-01T23:48:53.561Z,3.33
2023-01-01T23:51:21.812Z,4.10
2023-01-01T23:53:49.653Z,3.40
2023-01-01T23:56:17.681Z,3.67
2023-01-01T23:58:45.591Z,3.90
